createdAt,value
2022-11-18T00:01:24.363Z,9.88
2022-11-18T00:03:50.708Z,9.85
2022-11-18T00:06:17.016Z,9.87
2022-11-18T00:08:43.379Z,9.99
2022-11-18T00:11:09.728Z,9.91
2022-11-18T00:13:36.083Z,9.98
2022-11-18T00:16:02.407Z,9.85
2022-11-18T00:18:28.722Z,9.86
2022-11-18T00:20:55.084Z,9.84
2022-11-18T00:23:21.481Z,9.71
2022-11-18T00:25:47.788Z,9.74
2022-11-18T00:28:14.133Z,9.76
2022-11-18T00:30:40.445Z,9.73
2022-11-18T00:33:06.749Z,9.77
2022-11-18T00:35:33.083Z,9.85
2022-11-18T00:37:59.483Z,9.76
2022-11-18T00:40:25.833Z,9.75
2022-11-18T00:42:52.149Z,9.72
2022-11-18T00:45:18.527Z,9.79
2022-11-18T00:47:44.873Z,9.73
2022-11-18T00:50:11.186Z,9.69
2022-11-18T00:52:37.500Z,9.71
2022-11-18T00:55:03.794Z,9.80
2022-11-18T00:57:30.088Z,9.68
2022-11-18T00:59:56.449Z,9.73
2022-11-18T01:02:22.755Z,9.79
2022-11-18T01:04:49.050Z,9.74
2022-11-18T01:07:15.418Z,9.75
2022-11-18T01:09:41.729Z,9.61
2022-11-18T01:12:08.074Z,9.39
2022-11-18T01:14:34.393Z,9.18
2022-11-18T01:17:00.687Z,9.31
2022-11-18T01:19:26.986Z,9.32
2022-11-18T01:21:53.314Z,9.39
2022-11-18T01:24:19.612Z,9.38
2022-11-18T01:26:45.948Z,9.45
2022-11-18T01:29:12.279Z,9.57
2022-11-18T01:31:55.243Z,9.51
2022-11-18T01:34:24.922Z,9.55
2022-11-18T01:36:51.323Z,9.54
2022-11-18T01:39:17.909Z,9.50
2022-11-18T01:41:44.556Z,9.51
2022-11-18T01:44:10.903Z,9.64
2022-11-18T01:46:37.257Z,9.57
2022-11-18T01:49:03.578Z,9.52
2022-11-18T01:51:29.919Z,9.47
2022-11-18T01:53:56.267Z,9.39
2022-11-18T01:56:22.588Z,9.55
2022-11-18T01:58:48.885Z,9.54
2022-11-18T02:01:15.333Z,9.33
2022-11-18T02:03:41.726Z,9.39
2022-11-18T02:06:08.206Z,9.44
2022-11-18T02:08:34.533Z,9.38
2022-11-18T02:11:00.893Z,9.50
2022-11-18T02:13:27.239Z,9.48
2022-11-18T02:15:53.536Z,9.46
2022-11-18T02:18:19.886Z,9.47
2022-11-18T02:20:46.228Z,9.66
2022-11-18T02:23:12.579Z,9.50
2022-11-18T02:25:38.945Z,9.60
2022-11-18T02:28:05.302Z,9.50
2022-11-18T02:30:31.615Z,9.47
2022-11-18T02:32:57.985Z,9.38
2022-11-18T02:35:24.289Z,9.44
2022-11-18T02:37:50.585Z,9.34
2022-11-18T02:40:16.936Z,9.36
2022-11-18T02:42:43.232Z,9.35
2022-11-18T02:45:09.519Z,9.44
2022-11-18T02:47:35.936Z,9.51
2022-11-18T02:50:02.239Z,9.39
2022-11-18T02:52:28.571Z,9.31
2022-11-18T02:54:54.897Z,9.31
2022-11-18T02:57:21.201Z,9.32
2022-11-18T02:59:47.549Z,9.43
2022-11-18T03:02:13.873Z,9.43
2022-11-18T03:04:40.174Z,9.38
2022-11-18T03:07:06.534Z,9.42
2022-11-18T03:09:32.982Z,9.21
2022-11-18T03:11:59.294Z,9.26
2022-11-18T03:14:25.644Z,9.22
2022-11-18T03:16:51.973Z,9.20
2022-11-18T03:19:18.463Z,9.20
2022-11-18T03:21:45.041Z,9.25
2022-11-18T03:24:11.382Z,9.21
2022-11-18T03:26:37.683Z,9.27
2022-11-18T03:29:04.044Z,9.33
2022-11-18T03:31:30.387Z,9.19
2022-11-18T03:33:56.699Z,9.08
2022-11-18T03:36:23.058Z,8.94
2022-11-18T03:38:49.386Z,8.93
2022-11-18T03:41:15.741Z,8.90
2022-11-18T03:43:42.050Z,8.87
2022-11-18T03:46:08.413Z,8.72
2022-11-18T03:48:34.728Z,8.79
2022-11-18T03:51:01.078Z,8.74
2022-11-18T03:53:27.458Z,8.54
2022-11-18T03:55:53.806Z,8.40
2022-11-18T03:58:20.165Z,8.56
2022-11-18T04:00:46.549Z,8.61
2022-11-18T04:03:12.879Z,8.70
2022-11-18T04:05:39.186Z,8.57
2022-11-18T04:08:05.541Z,8.63
2022-11-18T04:10:31.871Z,8.73
2022-11-18T04:13:01.875Z,8.68
2022-11-18T04:15:32.252Z,8.74
2022-11-18T04:17:58.659Z,8.95
2022-11-18T04:20:25.011Z,8.99
2022-11-18T04:22:51.410Z,9.08
2022-11-18T04:25:17.734Z,9.03
2022-11-18T04:27:44.043Z,9.00
2022-11-18T04:30:10.369Z,9.08
2022-11-18T04:32:36.699Z,8.93
2022-11-18T04:35:03.059Z,9.05
2022-11-18T04:37:29.424Z,9.15
2022-11-18T04:39:55.785Z,9.16
2022-11-18T04:42:22.131Z,9.22
2022-11-18T04:44:48.471Z,9.12
2022-11-18T04:47:14.826Z,9.22
2022-11-18T04:49:41.189Z,9.09
2022-11-18T04:52:07.558Z,9.11
2022-11-18T04:54:33.880Z,9.11
2022-11-18T04:57:00.191Z,8.97
2022-11-18T04:59:26.599Z,9.08
2022-11-18T05:01:52.956Z,9.21
2022-11-18T05:04:19.285Z,9.20
2022-11-18T05:06:45.654Z,9.11
2022-11-18T05:09:12.016Z,9.14
2022-11-18T05:11:38.335Z,9.15
2022-11-18T05:14:04.714Z,8.99
2022-11-18T05:16:31.018Z,8.84
2022-11-18T05:18:57.356Z,9.02
2022-11-18T05:21:23.672Z,8.76
2022-11-18T05:23:49.978Z,8.73
2022-11-18T05:26:16.282Z,8.67
2022-11-18T05:28:42.641Z,8.51
2022-11-18T05:31:08.950Z,8.41
2022-11-18T05:33:35.296Z,8.43
2022-11-18T05:36:01.627Z,8.44
2022-11-18T05:38:27.972Z,8.36
2022-11-18T05:40:54.324Z,8.19
2022-11-18T05:43:22.022Z,8.29
2022-11-18T05:45:48.319Z,8.29
2022-11-18T05:48:14.677Z,8.24
2022-11-18T05:50:41.005Z,8.25
2022-11-18T05:53:07.361Z,8.32
2022-11-18T05:55:33.773Z,8.27
2022-11-18T05:58:00.137Z,8.20
2022-11-18T06:00:26.473Z,8.14
2022-11-18T06:02:52.839Z,8.20
2022-11-18T06:05:19.271Z,8.25
2022-11-18T06:07:45.686Z,8.28
2022-11-18T06:10:12.086Z,8.31
2022-11-18T06:12:38.691Z,8.37
2022-11-18T06:15:05.042Z,8.21
2022-11-18T06:17:31.356Z,8.29
2022-11-18T06:19:57.725Z,8.29
2022-11-18T06:22:24.035Z,8.47
2022-11-18T06:24:50.336Z,8.42
2022-11-18T06:27:16.704Z,8.51
2022-11-18T06:29:43.002Z,8.55
2022-11-18T06:32:09.346Z,8.68
2022-11-18T06:34:41.278Z,8.54
2022-11-18T06:37:08.161Z,8.52
2022-11-18T06:39:34.520Z,8.42
2022-11-18T06:42:00.852Z,8.44
2022-11-18T06:44:27.195Z,8.53
2022-11-18T06:46:53.506Z,8.42
2022-11-18T06:49:20.104Z,8.42
2022-11-18T06:51:46.611Z,8.39
2022-11-18T06:54:12.917Z,8.39
2022-11-18T06:56:39.287Z,8.43
2022-11-18T06:59:05.639Z,8.42
2022-11-18T07:01:32.065Z,8.32
2022-11-18T07:03:58.509Z,8.42
2022-11-18T07:06:24.813Z,8.51
2022-11-18T07:08:51.115Z,8.48
2022-11-18T07:11:17.482Z,8.27
2022-11-18T07:13:44.136Z,8.08
2022-11-18T07:16:10.498Z,8.13
2022-11-18T07:18:36.846Z,8.14
2022-11-18T07:21:03.199Z,8.12
2022-11-18T07:23:29.520Z,8.20
2022-11-18T07:25:55.837Z,8.24
2022-11-18T07:28:22.139Z,8.39
2022-11-18T07:30:48.476Z,8.39
2022-11-18T07:33:14.850Z,8.41
2022-11-18T07:35:41.187Z,8.40
2022-11-18T07:38:07.535Z,8.46
2022-11-18T07:40:33.904Z,8.41
2022-11-18T07:43:00.262Z,8.58
2022-11-18T07:45:26.606Z,8.55
2022-11-18T07:47:52.931Z,8.51
2022-11-18T07:50:19.225Z,8.43
2022-11-18T07:52:45.560Z,8.52
2022-11-18T07:55:11.924Z,8.59
2022-11-18T07:57:38.284Z,8.58
2022-11-18T08:00:04.625Z,8.56
2022-11-18T08:02:30.997Z,8.72
2022-11-18T08:04:57.321Z,8.64
2022-11-18T08:07:23.769Z,8.62
2022-11-18T08:09:50.162Z,8.54
2022-11-18T08:12:16.476Z,8.52
2022-11-18T08:14:42.769Z,8.70
2022-11-18T08:17:09.139Z,8.53
2022-11-18T08:19:35.493Z,8.57
2022-11-18T08:22:01.845Z,8.45
2022-11-18T08:24:28.205Z,8.38
2022-11-18T08:26:54.566Z,8.29
2022-11-18T08:29:24.986Z,8.39
2022-11-18T08:31:52.027Z,8.50
2022-11-18T08:34:18.347Z,8.51
2022-11-18T08:36:44.687Z,8.39
2022-11-18T08:39:11.061Z,8.43
2022-11-18T08:41:37.425Z,8.42
2022-11-18T08:44:03.771Z,8.39
2022-11-18T08:46:30.132Z,8.41
2022-11-18T08:48:56.489Z,8.35
2022-11-18T08:51:22.842Z,8.34
2022-11-18T08:53:49.167Z,8.21
2022-11-18T08:56:15.564Z,8.21
2022-11-18T08:58:41.901Z,8.15
2022-11-18T09:01:08.279Z,8.07
2022-11-18T09:03:34.628Z,8.14
2022-11-18T09:06:00.980Z,8.18
2022-11-18T09:08:27.338Z,8.45
2022-11-18T09:10:53.648Z,8.42
2022-11-18T09:13:44.811Z,8.54
2022-11-18T09:16:06.317Z,8.61
2022-11-18T09:18:32.620Z,8.62
2022-11-18T09:20:58.918Z,8.86
2022-11-18T09:23:25.361Z,8.87
2022-11-18T09:25:51.709Z,8.83
2022-11-18T09:28:18.052Z,8.99
2022-11-18T09:30:44.398Z,9.39
2022-11-18T09:33:10.703Z,9.35
2022-11-18T09:35:37.000Z,9.22
2022-11-18T09:38:03.365Z,9.30
2022-11-18T09:40:29.716Z,9.24
2022-11-18T09:42:56.068Z,9.35
2022-11-18T09:45:24.729Z,9.31
2022-11-18T09:47:51.822Z,9.26
2022-11-18T09:50:47.851Z,9.38
2022-11-18T09:53:04.529Z,9.54
2022-11-18T09:55:30.885Z,9.79
2022-11-18T09:57:57.190Z,10.12
2022-11-18T10:00:23.543Z,9.84
2022-11-18T10:02:49.892Z,10.36
2022-11-18T10:05:16.246Z,10.26
2022-11-18T10:07:42.718Z,10.04
2022-11-18T10:10:09.137Z,9.82
2022-11-18T10:12:35.439Z,9.82
2022-11-18T10:15:01.754Z,9.58
2022-11-18T10:17:28.089Z,9.32
2022-11-18T10:19:54.453Z,9.34
2022-11-18T10:22:24.302Z,9.47
2022-11-18T10:24:51.018Z,9.18
2022-11-18T10:27:17.304Z,9.15
2022-11-18T10:29:43.661Z,9.10
2022-11-18T10:32:14.220Z,9.14
2022-11-18T10:34:40.579Z,9.07
2022-11-18T10:37:06.961Z,9.32
2022-11-18T10:39:33.277Z,9.53
2022-11-18T10:41:59.627Z,9.40
2022-11-18T10:44:25.959Z,9.36
2022-11-18T10:46:52.316Z,9.31
2022-11-18T10:49:18.674Z,9.61
2022-11-18T10:51:44.999Z,10.23
2022-11-18T10:54:11.347Z,10.40
2022-11-18T10:56:37.679Z,10.63
2022-11-18T10:59:04.047Z,10.72
2022-11-18T11:01:30.473Z,10.71
2022-11-18T11:03:56.907Z,10.65
2022-11-18T11:06:23.283Z,10.72
2022-11-18T11:08:49.640Z,10.46
2022-11-18T11:11:15.953Z,10.38
2022-11-18T11:13:42.294Z,10.45
2022-11-18T11:16:08.602Z,10.55
2022-11-18T11:18:34.913Z,10.67
2022-11-18T11:21:01.282Z,10.66
2022-11-18T11:23:27.591Z,10.65
2022-11-18T11:28:40.166Z,10.64
2022-11-18T11:31:06.475Z,10.53
2022-11-18T11:33:32.765Z,10.55
2022-11-18T11:35:59.116Z,10.57
2022-11-18T11:38:25.403Z,10.47
2022-11-18T11:40:51.722Z,10.43
2022-11-18T11:43:18.024Z,10.27
2022-11-18T11:45:44.312Z,10.31
2022-11-18T11:48:10.617Z,10.36
2022-11-18T11:50:36.950Z,10.55
2022-11-18T11:53:03.260Z,10.73
2022-11-18T11:55:29.553Z,10.69
2022-11-18T11:57:55.875Z,10.97
2022-11-18T12:00:22.172Z,10.88
2022-11-18T12:02:48.531Z,10.98
2022-11-18T12:05:14.904Z,10.94
2022-11-18T12:07:41.319Z,11.09
2022-11-18T12:10:07.731Z,10.91
2022-11-18T12:12:34.048Z,10.82
2022-11-18T12:15:00.360Z,10.78
2022-11-18T12:17:26.660Z,10.69
2022-11-18T12:19:53.032Z,10.64
2022-11-18T12:22:26.121Z,10.71
2022-11-18T12:24:52.418Z,10.65
2022-11-18T12:27:18.728Z,10.56
2022-11-18T12:29:45.028Z,10.57
2022-11-18T12:32:11.333Z,10.54
2022-11-18T12:34:37.638Z,10.48
2022-11-18T12:37:03.948Z,10.37
2022-11-18T12:39:30.248Z,10.43
2022-11-18T12:41:56.610Z,10.10
2022-11-18T12:44:22.914Z,10.13
2022-11-18T12:46:49.203Z,9.99
2022-11-18T12:49:15.633Z,10.06
2022-11-18T12:51:42.084Z,10.08
2022-11-18T12:54:12.658Z,10.08
2022-11-18T12:56:40.132Z,10.01
2022-11-18T12:59:06.768Z,9.83
2022-11-18T13:01:33.621Z,9.52
2022-11-18T13:03:59.974Z,9.51
2022-11-18T13:06:26.278Z,9.68
2022-11-18T13:08:52.648Z,9.92
2022-11-18T13:11:19.140Z,10.02
2022-11-18T13:13:45.487Z,10.25
2022-11-18T13:16:11.965Z,10.30
2022-11-18T13:18:38.528Z,10.35
2022-11-18T13:21:04.824Z,10.12
2022-11-18T13:23:31.119Z,10.01
2022-11-18T13:25:57.412Z,10.13
2022-11-18T13:28:23.702Z,10.16
2022-11-18T13:30:49.997Z,10.11
2022-11-18T13:33:16.327Z,10.01
2022-11-18T13:35:42.721Z,10.20
2022-11-18T13:38:09.008Z,10.34
2022-11-18T13:40:35.478Z,10.26
2022-11-18T13:43:01.792Z,10.12
2022-11-18T13:45:28.080Z,10.17
2022-11-18T13:47:54.424Z,10.31
2022-11-18T13:50:20.725Z,10.27
2022-11-18T13:52:47.306Z,10.11
2022-11-18T13:55:13.687Z,10.24
2022-11-18T13:57:39.985Z,10.28
2022-11-18T14:00:06.275Z,10.19
2022-11-18T14:02:32.597Z,10.21
2022-11-18T14:04:59.603Z,10.07
2022-11-18T14:07:25.933Z,9.99
2022-11-18T14:09:52.347Z,10.07
2022-11-18T14:12:18.640Z,9.90
2022-11-18T14:14:44.925Z,9.77
2022-11-18T14:17:11.241Z,9.89
2022-11-18T14:19:37.523Z,9.91
2022-11-18T14:22:04.712Z,9.91
2022-11-18T14:24:32.717Z,9.96
2022-11-18T14:26:59.011Z,10.04
2022-11-18T14:29:25.325Z,10.04
2022-11-18T14:31:51.650Z,10.10
2022-11-18T14:34:17.949Z,10.04
2022-11-18T14:36:44.239Z,10.01
2022-11-18T14:39:31.578Z,9.82
2022-11-18T14:41:56.827Z,9.80
2022-11-18T14:44:23.158Z,9.71
2022-11-18T14:46:49.677Z,9.75
2022-11-18T14:49:16.660Z,9.79
2022-11-18T14:51:43.930Z,9.76
2022-11-18T14:54:10.302Z,9.82
2022-11-18T14:56:36.789Z,9.64
2022-11-18T14:59:03.335Z,9.83
2022-11-18T15:01:30.931Z,9.80
2022-11-18T15:03:57.557Z,9.89
2022-11-18T15:06:23.974Z,9.87
2022-11-18T15:08:50.368Z,9.95
2022-11-18T15:11:16.657Z,9.90
2022-11-18T15:13:42.993Z,9.70
2022-11-18T15:16:09.292Z,9.53
2022-11-18T15:18:35.576Z,9.73
2022-11-18T15:21:01.884Z,9.73
2022-11-18T15:23:29.898Z,9.83
2022-11-18T15:25:56.419Z,9.95
2022-11-18T15:28:22.728Z,10.03
2022-11-18T15:30:49.050Z,10.06
2022-11-18T15:33:15.341Z,9.98
2022-11-18T15:35:41.672Z,9.87
2022-11-18T15:38:07.972Z,9.88
2022-11-18T15:40:34.269Z,9.80
2022-11-18T15:43:00.597Z,9.76
2022-11-18T15:45:26.898Z,9.72
2022-11-18T15:47:53.192Z,9.73
2022-11-18T15:50:19.502Z,9.74
2022-11-18T15:52:45.797Z,9.62
2022-11-18T15:55:12.091Z,9.54
2022-11-18T15:57:38.447Z,9.56
2022-11-18T16:00:04.822Z,9.51
2022-11-18T16:02:31.170Z,9.43
2022-11-18T16:04:57.483Z,9.56
2022-11-18T16:07:23.831Z,9.61
2022-11-18T16:09:50.147Z,9.58
2022-11-18T16:12:16.469Z,9.53
2022-11-18T16:14:42.765Z,9.52
2022-11-18T16:17:09.059Z,9.53
2022-11-18T16:19:35.363Z,9.48
2022-11-18T16:22:01.647Z,9.53
2022-11-18T16:24:27.954Z,9.38
2022-11-18T16:26:54.299Z,9.41
2022-11-18T16:32:06.899Z,9.45
2022-11-18T16:34:33.199Z,9.48
2022-11-18T16:36:59.546Z,9.30
2022-11-18T16:39:28.879Z,9.35
2022-11-18T16:40:28.282Z,9.39
2022-11-18T16:41:55.177Z,9.51
2022-11-18T16:44:21.473Z,9.35
2022-11-18T16:46:47.823Z,9.28
2022-11-18T16:49:14.115Z,9.10
2022-11-18T16:51:40.423Z,8.98
2022-11-18T16:54:06.912Z,9.09
2022-11-18T16:56:33.232Z,9.24
2022-11-18T16:58:59.538Z,9.13
2022-11-18T17:01:29.366Z,9.04
2022-11-18T17:03:56.226Z,9.10
2022-11-18T17:06:22.521Z,9.02
2022-11-18T17:08:48.852Z,9.04
2022-11-18T17:11:15.153Z,9.01
2022-11-18T17:13:41.447Z,9.02
2022-11-18T17:16:07.758Z,8.77
2022-11-18T17:18:34.052Z,8.94
2022-11-18T17:21:00.344Z,8.90
2022-11-18T17:23:26.659Z,9.06
2022-11-18T17:25:53.092Z,9.01
2022-11-18T17:28:19.381Z,8.96
2022-11-18T17:30:49.901Z,8.98
2022-11-18T17:33:16.468Z,9.07
2022-11-18T17:35:42.771Z,9.06
2022-11-18T17:38:09.081Z,9.01
2022-11-18T17:40:35.357Z,8.93
2022-11-18T17:43:01.666Z,9.04
2022-11-18T17:45:27.994Z,9.03
2022-11-18T17:47:54.312Z,9.07
2022-11-18T17:50:20.625Z,9.14
2022-11-18T17:52:46.939Z,9.12
2022-11-18T17:55:15.559Z,9.18
2022-11-18T17:57:41.866Z,9.05
2022-11-18T18:00:08.219Z,8.98
2022-11-18T18:02:34.585Z,9.13
2022-11-18T18:05:00.890Z,9.11
2022-11-18T18:07:27.283Z,9.16
2022-11-18T18:09:53.649Z,8.97
2022-11-18T18:12:19.950Z,9.06
2022-11-18T18:14:46.273Z,8.97
2022-11-18T18:17:12.588Z,8.83
2022-11-18T18:19:38.885Z,8.92
2022-11-18T18:22:05.207Z,8.97
2022-11-18T18:24:31.508Z,8.90
2022-11-18T18:26:57.807Z,8.85
2022-11-18T18:29:24.120Z,8.83
2022-11-18T18:31:50.423Z,8.94
2022-11-18T18:34:16.989Z,8.98
2022-11-18T18:36:43.744Z,8.85
2022-11-18T18:39:10.039Z,8.94
2022-11-18T18:41:36.340Z,8.89
2022-11-18T18:44:02.661Z,8.76
2022-11-18T18:46:29.254Z,8.75
2022-11-18T18:48:56.080Z,8.72
2022-11-18T18:51:22.407Z,8.76
2022-11-18T18:53:48.717Z,8.63
2022-11-18T18:56:15.018Z,8.70
2022-11-18T18:58:41.336Z,8.72
2022-11-18T19:01:07.724Z,8.82
2022-11-18T19:03:34.107Z,8.67
2022-11-18T19:08:46.668Z,8.52
2022-11-18T19:11:13.052Z,8.45
2022-11-18T19:13:39.381Z,8.55
2022-11-18T19:16:05.738Z,8.72
2022-11-18T19:18:32.124Z,8.56
2022-11-18T19:20:58.440Z,8.52
2022-11-18T19:23:24.739Z,8.54
2022-11-18T19:25:51.093Z,8.30
2022-11-18T19:28:17.407Z,8.42
2022-11-18T19:30:43.700Z,8.57
2022-11-18T19:33:10.024Z,8.57
2022-11-18T19:35:36.302Z,8.45
2022-11-18T19:38:02.588Z,8.48
2022-11-18T19:40:28.906Z,8.39
2022-11-18T19:42:55.192Z,8.43
2022-11-18T19:45:21.488Z,8.27
2022-11-18T19:47:47.800Z,8.28
2022-11-18T19:50:14.096Z,8.23
2022-11-18T19:52:40.385Z,8.32
2022-11-18T19:55:06.704Z,8.45
2022-11-18T19:57:32.986Z,8.33
2022-11-18T19:59:59.283Z,8.49
2022-11-18T20:02:25.584Z,8.47
2022-11-18T20:04:51.867Z,8.47
2022-11-18T20:07:18.258Z,8.41
2022-11-18T20:09:44.606Z,8.48
2022-11-18T20:12:10.916Z,8.61
2022-11-18T20:14:37.217Z,8.56
2022-11-18T20:17:03.587Z,8.51
2022-11-18T20:19:29.889Z,8.57
2022-11-18T20:21:56.199Z,8.40
2022-11-18T20:24:22.533Z,8.46
2022-11-18T20:26:48.834Z,8.46
2022-11-18T20:29:15.141Z,8.49
2022-11-18T20:31:41.443Z,8.53
2022-11-18T20:34:07.738Z,8.57
2022-11-18T20:36:34.026Z,8.53
2022-11-18T20:39:00.337Z,8.57
2022-11-18T20:41:26.631Z,8.65
2022-11-18T20:43:52.922Z,8.42
2022-11-18T20:46:20.981Z,8.51
2022-11-18T20:48:47.709Z,8.50
2022-11-18T20:51:14.019Z,8.45
2022-11-18T20:53:40.328Z,8.40
2022-11-18T20:56:06.632Z,8.39
2022-11-18T20:58:32.920Z,8.43
2022-11-18T21:01:01.739Z,8.40
2022-11-18T21:03:28.320Z,8.34
2022-11-18T21:05:54.621Z,8.47
2022-11-18T21:08:20.946Z,8.54
2022-11-18T21:10:47.261Z,8.38
2022-11-18T21:13:13.548Z,8.17
2022-11-18T21:15:39.909Z,8.39
2022-11-18T21:18:06.368Z,8.26
2022-11-18T21:20:32.687Z,8.15
2022-11-18T21:22:59.103Z,8.10
2022-11-18T21:25:25.559Z,8.17
2022-11-18T22:04:29.436Z,8.09
2022-11-18T22:06:55.767Z,8.21
2022-11-18T22:09:22.116Z,8.08
2022-11-18T22:11:48.424Z,8.13
2022-11-18T22:14:14.726Z,8.21
2022-11-18T22:16:41.018Z,8.19
2022-11-18T22:19:08.439Z,8.29
2022-11-18T22:21:34.859Z,8.32
2022-11-18T22:24:01.294Z,8.33
2022-11-18T22:26:27.722Z,8.17
2022-11-18T22:28:55.204Z,8.24
2022-11-18T22:31:21.486Z,8.17
2022-11-18T22:33:47.815Z,8.12
2022-11-18T22:36:14.111Z,7.95
2022-11-18T22:38:40.403Z,7.92
2022-11-18T22:41:06.716Z,7.84
2022-11-18T22:43:33.021Z,8.00
2022-11-18T22:45:59.417Z,8.07
2022-11-18T22:48:25.738Z,8.02
2022-11-18T22:50:52.026Z,8.14
2022-11-18T22:53:18.332Z,8.20
2022-11-18T22:55:44.673Z,8.31
2022-11-18T22:58:10.954Z,8.25
2022-11-18T23:00:37.251Z,8.26
2022-11-18T23:03:03.556Z,8.28
2022-11-18T23:05:29.949Z,8.27
2022-11-18T23:07:56.266Z,8.25
2022-11-18T23:10:22.585Z,8.33
2022-11-18T23:12:48.873Z,8.27
2022-11-18T23:15:15.172Z,8.23
2022-11-18T23:17:41.473Z,8.20
2022-11-18T23:20:07.769Z,8.09
2022-11-18T23:22:34.050Z,8.17
2022-11-18T23:25:00.397Z,8.12
2022-11-18T23:27:26.695Z,8.20
2022-11-18T23:29:52.987Z,8.29
2022-11-18T23:32:19.342Z,8.28
2022-11-18T23:34:45.635Z,8.21
2022-11-18T23:37:11.920Z,8.17
2022-11-18T23:39:38.225Z,8.19
2022-11-18T23:42:04.523Z,8.14
2022-11-18T23:44:30.808Z,8.16
2022-11-18T23:46:57.116Z,8.21
2022-11-18T23:49:23.409Z,8.22
2022-11-18T23:51:49.696Z,8.26
2022-11-18T23:54:16.016Z,8.38
2022-11-18T23:56:42.299Z,8.14
2022-11-18T23:59:08.588Z,8.22
